sensor_id;sensor_type;location;lat;lon;timestamp;noise_LAeq;noise_LA_min;noise_LA_max;noise_LA01;noise_LA95
56099;Laerm;44276;49.534;6.378;2023-09-19T00:01:44;41.96;39.21;50.45;;
56099;Laerm;44276;49.534;6.378;2023-09-19T00:04:14;42.11;39.70;53.33;;
56099;Laerm;44276;49.534;6.378;2023-09-19T00:06:42;41.64;39.34;43.54;;
56099;Laerm;44276;49.534;6.378;2023-09-19T00:09:11;41.74;40.03;44.97;;
56099;Laerm;44276;49.534;6.378;2023-09-19T00:11:39;43.59;40.13;51.96;;
56099;Laerm;44276;49.534;6.378;2023-09-19T00:14:08;43.53;39.92;50.71;;
56099;Laerm;44276;49.534;6.378;2023-09-19T00:16:36;45.51;40.03;58.69;;
56099;Laerm;44276;49.534;6.378;2023-09-19T00:19:04;44.89;40.23;59.06;;
56099;Laerm;44276;49.534;6.378;2023-09-19T00:21:37;43.04;40.23;52.10;;
56099;Laerm;44276;49.534;6.378;2023-09-19T00:24:06;42.20;39.46;50.02;;
56099;Laerm;44276;49.534;6.378;2023-09-19T00:26:35;42.88;39.46;50.29;;
56099;Laerm;44276;49.534;6.378;2023-09-19T00:29:05;41.67;39.46;44.80;;
56099;Laerm;44276;49.534;6.378;2023-09-19T00:31:35;42.03;39.34;47.22;;
56099;Laerm;44276;49.534;6.378;2023-09-19T00:34:04;41.60;39.81;43.39;;
56099;Laerm;44276;49.534;6.378;2023-09-19T00:36:33;41.57;39.34;43.09;;
56099;Laerm;44276;49.534;6.378;2023-09-19T00:39:03;41.73;39.34;44.87;;
56099;Laerm;44276;49.534;6.378;2023-09-19T00:41:32;41.96;39.21;46.05;;
56099;Laerm;44276;49.534;6.378;2023-09-19T00:44:02;43.45;39.92;46.57;;
56099;Laerm;44276;49.534;6.378;2023-09-19T00:46:31;43.86;40.62;53.21;;
56099;Laerm;44276;49.534;6.378;2023-09-19T00:49:00;42.12;39.81;44.65;;
56099;Laerm;44276;49.534;6.378;2023-09-19T00:51:29;42.40;39.92;47.57;;
56099;Laerm;44276;49.534;6.378;2023-09-19T00:53:59;42.76;38.67;49.70;;
56099;Laerm;44276;49.534;6.378;2023-09-19T00:56:29;42.60;39.58;50.17;;
56099;Laerm;44276;49.534;6.378;2023-09-19T00:58:57;43.34;39.81;51.63;;
56099;Laerm;44276;49.534;6.378;2023-09-19T01:01:25;43.08;39.70;51.40;;
56099;Laerm;44276;49.534;6.378;2023-09-19T01:03:54;43.55;39.70;49.65;;
56099;Laerm;44276;49.534;6.378;2023-09-19T01:06:22;41.78;39.58;49.23;;
56099;Laerm;44276;49.534;6.378;2023-09-19T01:08:50;43.59;40.13;50.51;;
56099;Laerm;44276;49.534;6.378;2023-09-19T01:11:31;44.03;39.92;49.88;;
56099;Laerm;44276;49.534;6.378;2023-09-19T01:14:16;44.17;40.03;49.52;;
56099;Laerm;44276;49.534;6.378;2023-09-19T01:16:57;43.31;40.13;46.40;;
56099;Laerm;44276;49.534;6.378;2023-09-19T01:20:14;43.80;40.62;52.77;;
56099;Laerm;44276;49.534;6.378;2023-09-19T01:22:58;42.00;39.70;45.63;;
56099;Laerm;44276;49.534;6.378;2023-09-19T01:26:06;42.67;39.81;52.93;;
56099;Laerm;44276;49.534;6.378;2023-09-19T01:28:52;41.83;39.92;43.24;;
56099;Laerm;44276;49.534;6.378;2023-09-19T01:31:28;41.83;40.13;43.29;;
56099;Laerm;44276;49.534;6.378;2023-09-19T01:33:59;41.80;39.81;44.03;;
56099;Laerm;44276;49.534;6.378;2023-09-19T01:36:31;42.30;39.21;50.68;;
56099;Laerm;44276;49.534;6.378;2023-09-19T01:39:04;41.91;39.92;44.73;;
56099;Laerm;44276;49.534;6.378;2023-09-19T01:42:03;42.32;40.13;46.13;;
56099;Laerm;44276;49.534;6.378;2023-09-19T01:44:44;41.96;39.92;44.97;;
56099;Laerm;44276;49.534;6.378;2023-09-19T01:47:32;42.06;39.99;47.20;;
56099;Laerm;44276;49.534;6.378;2023-09-19T01:50:13;41.92;39.70;44.83;;
56099;Laerm;44276;49.534;6.378;2023-09-19T01:52:55;42.01;39.92;45.27;;
56099;Laerm;44276;49.534;6.378;2023-09-19T01:55:28;42.14;39.81;45.72;;
56099;Laerm;44276;49.534;6.378;2023-09-19T01:58:07;43.23;39.92;52.54;;
56099;Laerm;44276;49.534;6.378;2023-09-19T02:00:40;42.28;39.92;48.76;;
56099;Laerm;44276;49.534;6.378;2023-09-19T02:03:11;42.06;39.81;51.51;;
56099;Laerm;44276;49.534;6.378;2023-09-19T02:05:41;42.18;39.81;45.20;;
56099;Laerm;44276;49.534;6.378;2023-09-19T02:08:09;42.32;39.58;50.45;;
56099;Laerm;44276;49.534;6.378;2023-09-19T02:10:37;42.32;39.70;51.62;;
56099;Laerm;44276;49.534;6.378;2023-09-19T02:13:08;42.14;39.81;45.91;;
56099;Laerm;44276;49.534;6.378;2023-09-19T02:15:36;42.56;39.92;50.09;;
56099;Laerm;44276;49.534;6.378;2023-09-19T02:18:05;41.97;39.46;45.51;;
56099;Laerm;44276;49.534;6.378;2023-09-19T02:20:35;42.45;40.23;49.50;;
56099;Laerm;44276;49.534;6.378;2023-09-19T02:23:04;42.23;39.81;46.57;;
56099;Laerm;44276;49.534;6.378;2023-09-19T02:25:32;42.17;40.03;45.54;;
56099;Laerm;44276;49.534;6.378;2023-09-19T02:28:02;42.48;39.81;48.46;;
56099;Laerm;44276;49.534;6.378;2023-09-19T02:30:30;42.60;39.21;52.02;;
56099;Laerm;44276;49.534;6.378;2023-09-19T02:32:59;42.09;40.03;44.35;;
56099;Laerm;44276;49.534;6.378;2023-09-19T02:35:30;41.95;39.58;44.80;;
56099;Laerm;44276;49.534;6.378;2023-09-19T02:38:04;42.11;39.81;45.54;;
56099;Laerm;44276;49.534;6.378;2023-09-19T02:40:33;42.15;39.70;46.40;;
56099;Laerm;44276;49.534;6.378;2023-09-19T02:43:03;42.14;39.70;45.36;;
56099;Laerm;44276;49.534;6.378;2023-09-19T02:45:32;42.04;39.92;46.13;;
56099;Laerm;44276;49.534;6.378;2023-09-19T02:48:00;42.36;39.81;49.07;;
56099;Laerm;44276;49.534;6.378;2023-09-19T02:50:30;42.69;39.92;50.06;;
56099;Laerm;44276;49.534;6.378;2023-09-19T02:52:58;42.52;40.33;49.18;;
56099;Laerm;44276;49.534;6.378;2023-09-19T02:55:27;42.42;40.23;51.05;;
56099;Laerm;44276;49.534;6.378;2023-09-19T02:57:56;42.35;39.81;48.99;;
56099;Laerm;44276;49.534;6.378;2023-09-19T03:00:24;42.31;40.23;50.14;;
56099;Laerm;44276;49.534;6.378;2023-09-19T03:02:55;42.78;40.03;50.51;;
56099;Laerm;44276;49.534;6.378;2023-09-19T03:05:24;42.24;40.23;47.38;;
56099;Laerm;44276;49.534;6.378;2023-09-19T03:07:53;42.01;39.81;45.07;;
56099;Laerm;44276;49.534;6.378;2023-09-19T03:10:23;42.20;40.08;45.72;;
56099;Laerm;44276;49.534;6.378;2023-09-19T03:12:53;42.17;39.92;45.91;;
56099;Laerm;44276;49.534;6.378;2023-09-19T03:15:22;42.25;39.81;46.95;;
56099;Laerm;44276;49.534;6.378;2023-09-19T03:17:50;42.67;40.33;46.97;;
56099;Laerm;44276;49.534;6.378;2023-09-19T03:20:19;42.06;39.81;46.89;;
56099;Laerm;44276;49.534;6.378;2023-09-19T03:22:48;42.22;40.03;46.13;;
56099;Laerm;44276;49.534;6.378;2023-09-19T03:25:16;43.02;40.33;48.20;;
56099;Laerm;44276;49.534;6.378;2023-09-19T03:27:46;42.98;40.33;49.34;;
56099;Laerm;44276;49.534;6.378;2023-09-19T03:30:16;43.13;40.53;54.38;;
56099;Laerm;44276;49.534;6.378;2023-09-19T03:32:45;43.46;40.23;57.02;;
56099;Laerm;44276;49.534;6.378;2023-09-19T03:35:14;42.59;40.23;49.89;;
56099;Laerm;44276;49.534;6.378;2023-09-19T03:37:43;42.63;40.23;47.70;;
56099;Laerm;44276;49.534;6.378;2023-09-19T03:40:12;42.99;40.71;48.12;;
56099;Laerm;44276;49.534;6.378;2023-09-19T03:42:41;43.77;40.71;51.35;;
56099;Laerm;44276;49.534;6.378;2023-09-19T03:45:10;42.99;40.33;49.53;;
56099;Laerm;44276;49.534;6.378;2023-09-19T03:47:41;43.30;40.62;48.98;;
56099;Laerm;44276;49.534;6.378;2023-09-19T03:50:10;43.55;39.92;51.15;;
56099;Laerm;44276;49.534;6.378;2023-09-19T03:52:38;43.72;40.53;51.15;;
56099;Laerm;44276;49.534;6.378;2023-09-19T03:55:07;43.21;40.23;55.23;;
56099;Laerm;44276;49.534;6.378;2023-09-19T03:57:37;43.43;40.23;56.08;;
56099;Laerm;44276;49.534;6.378;2023-09-19T04:00:07;43.37;40.18;54.58;;
56099;Laerm;44276;49.534;6.378;2023-09-19T04:02:44;43.98;40.43;55.01;;
56099;Laerm;44276;49.534;6.378;2023-09-19T04:05:13;42.77;40.13;50.33;;
56099;Laerm;44276;49.534;6.378;2023-09-19T04:07:41;43.00;40.53;49.81;;
56099;Laerm;44276;49.534;6.378;2023-09-19T04:10:10;42.68;40.43;51.23;;
56099;Laerm;44276;49.534;6.378;2023-09-19T04:12:39;43.07;40.23;48.00;;
56099;Laerm;44276;49.534;6.378;2023-09-19T04:15:08;42.83;40.33;50.06;;
56099;Laerm;44276;49.534;6.378;2023-09-19T04:17:40;44.23;40.89;55.63;;
56099;Laerm;44276;49.534;6.378;2023-09-19T04:20:10;43.83;40.43;57.96;;
56099;Laerm;44276;49.534;6.378;2023-09-19T04:22:39;44.78;40.53;58.58;;
56099;Laerm;44276;49.534;6.378;2023-09-19T04:25:08;43.54;40.89;52.40;;
56099;Laerm;44276;49.534;6.378;2023-09-19T04:27:36;43.90;40.43;54.79;;
56099;Laerm;44276;49.534;6.378;2023-09-19T04:30:07;44.46;40.53;59.48;;
56099;Laerm;44276;49.534;6.378;2023-09-19T04:32:38;43.58;40.43;57.51;;
56099;Laerm;44276;49.534;6.378;2023-09-19T04:35:10;43.10;40.08;48.15;;
56099;Laerm;44276;49.534;6.378;2023-09-19T04:37:40;43.43;40.33;54.04;;
56099;Laerm;44276;49.534;6.378;2023-09-19T04:40:10;43.12;40.03;55.41;;
56099;Laerm;44276;49.534;6.378;2023-09-19T04:42:40;42.54;40.03;46.66;;
56099;Laerm;44276;49.534;6.378;2023-09-19T04:45:10;43.49;40.43;54.23;;
56099;Laerm;44276;49.534;6.378;2023-09-19T04:47:39;43.08;39.89;54.61;;
56099;Laerm;44276;49.534;6.378;2023-09-19T04:50:10;42.51;40.23;48.23;;
56099;Laerm;44276;49.534;6.378;2023-09-19T04:52:41;42.77;40.33;51.18;;
56099;Laerm;44276;49.534;6.378;2023-09-19T04:55:12;42.63;40.18;47.67;;
56099;Laerm;44276;49.534;6.378;2023-09-19T04:57:44;42.73;40.23;49.51;;
56099;Laerm;44276;49.534;6.378;2023-09-19T05:00:14;42.24;40.23;47.48;;
56099;Laerm;44276;49.534;6.378;2023-09-19T05:02:44;42.72;40.03;50.37;;
56099;Laerm;44276;49.534;6.378;2023-09-19T05:05:14;42.39;40.23;47.54;;
56099;Laerm;44276;49.534;6.378;2023-09-19T05:07:44;42.65;40.13;47.30;;
56099;Laerm;44276;49.534;6.378;2023-09-19T05:10:13;42.61;40.23;45.60;;
56099;Laerm;44276;49.534;6.378;2023-09-19T05:12:42;42.52;40.03;50.31;;
56099;Laerm;44276;49.534;6.378;2023-09-19T05:15:12;42.55;40.13;47.54;;
56099;Laerm;44276;49.534;6.378;2023-09-19T05:17:41;42.51;40.13;49.46;;
56099;Laerm;44276;49.534;6.378;2023-09-19T05:20:12;42.45;40.13;46.10;;
56099;Laerm;44276;49.534;6.378;2023-09-19T05:22:43;42.92;40.33;48.10;;
56099;Laerm;44276;49.534;6.378;2023-09-19T05:25:13;42.49;40.13;47.54;;
56099;Laerm;44276;49.534;6.378;2023-09-19T05:27:43;43.61;40.23;50.83;;
56099;Laerm;44276;49.534;6.378;2023-09-19T05:30:12;42.91;40.43;47.18;;
56099;Laerm;44276;49.534;6.378;2023-09-19T05:32:42;42.93;40.43;48.73;;
56099;Laerm;44276;49.534;6.378;2023-09-19T05:35:12;42.40;40.03;49.77;;
56099;Laerm;44276;49.534;6.378;2023-09-19T05:37:40;44.97;39.99;55.32;;
56099;Laerm;44276;49.534;6.378;2023-09-19T05:40:10;44.05;40.53;55.88;;
56099;Laerm;44276;49.534;6.378;2023-09-19T05:42:39;46.94;41.75;52.52;;
56099;Laerm;44276;49.534;6.378;2023-09-19T05:45:09;42.82;40.89;45.97;;
56099;Laerm;44276;49.534;6.378;2023-09-19T05:47:39;43.32;40.62;49.46;;
56099;Laerm;44276;49.534;6.378;2023-09-19T05:50:13;44.31;41.68;50.29;;
56099;Laerm;44276;49.534;6.378;2023-09-19T05:52:42;45.75;42.35;51.74;;
56099;Laerm;44276;49.534;6.378;2023-09-19T05:55:11;44.55;40.98;50.59;;
56099;Laerm;44276;49.534;6.378;2023-09-19T05:57:39;44.43;41.22;54.71;;
56099;Laerm;44276;49.534;6.378;2023-09-19T06:00:10;45.43;41.30;54.82;;
56099;Laerm;44276;49.534;6.378;2023-09-19T06:02:39;46.34;41.68;53.43;;
56099;Laerm;44276;49.534;6.378;2023-09-19T06:05:08;44.71;40.71;56.06;;
56099;Laerm;44276;49.534;6.378;2023-09-19T06:07:39;44.95;41.53;51.34;;
56099;Laerm;44276;49.534;6.378;2023-09-19T06:10:08;46.06;41.30;52.51;;
56099;Laerm;44276;49.534;6.378;2023-09-19T06:12:38;44.83;41.30;51.08;;
56099;Laerm;44276;49.534;6.378;2023-09-19T06:15:07;45.10;41.53;54.20;;
56099;Laerm;44276;49.534;6.378;2023-09-19T06:17:39;46.40;42.35;52.44;;
56099;Laerm;44276;49.534;6.378;2023-09-19T06:20:08;44.24;40.71;51.15;;
56099;Laerm;44276;49.534;6.378;2023-09-19T06:22:44;43.86;40.53;55.11;;
56099;Laerm;44276;49.534;6.378;2023-09-19T06:25:15;46.72;42.98;52.94;;
56099;Laerm;44276;49.534;6.378;2023-09-19T06:27:47;44.22;40.23;52.10;;
56099;Laerm;44276;49.534;6.378;2023-09-19T06:30:15;43.29;39.81;51.24;;
56099;Laerm;44276;49.534;6.378;2023-09-19T06:32:44;43.12;40.43;54.08;;
56099;Laerm;44276;49.534;6.378;2023-09-19T06:35:15;42.84;40.03;51.24;;
56099;Laerm;44276;49.534;6.378;2023-09-19T06:37:44;43.13;39.92;47.42;;
56099;Laerm;44276;49.534;6.378;2023-09-19T06:40:14;43.70;39.92;54.14;;
56099;Laerm;44276;49.534;6.378;2023-09-19T06:42:45;42.99;39.81;53.55;;
56099;Laerm;44276;49.534;6.378;2023-09-19T06:45:15;42.53;39.58;51.59;;
56099;Laerm;44276;49.534;6.378;2023-09-19T06:47:46;44.63;41.19;53.03;;
56099;Laerm;44276;49.534;6.378;2023-09-19T06:50:17;44.46;40.13;51.17;;
56099;Laerm;44276;49.534;6.378;2023-09-19T06:52:49;45.15;42.03;50.93;;
56099;Laerm;44276;49.534;6.378;2023-09-19T06:55:19;44.34;41.06;50.37;;
56099;Laerm;44276;49.534;6.378;2023-09-19T06:57:49;43.76;41.06;47.48;;
56099;Laerm;44276;49.534;6.378;2023-09-19T07:00:17;45.07;41.38;52.54;;
56099;Laerm;44276;49.534;6.378;2023-09-19T07:02:55;44.86;40.62;51.67;;
56099;Laerm;44276;49.534;6.378;2023-09-19T07:05:26;43.76;39.68;53.05;;
56099;Laerm;44276;49.534;6.378;2023-09-19T07:07:56;43.27;40.03;50.54;;
56099;Laerm;44276;49.534;6.378;2023-09-19T07:10:26;43.83;39.81;54.43;;
56099;Laerm;44276;49.534;6.378;2023-09-19T07:12:56;43.58;40.71;52.79;;
56099;Laerm;44276;49.534;6.378;2023-09-19T07:15:26;44.09;39.34;55.72;;
56099;Laerm;44276;49.534;6.378;2023-09-19T07:17:55;42.95;39.81;51.86;;
56099;Laerm;44276;49.534;6.378;2023-09-19T07:20:24;43.93;39.46;61.02;;
56099;Laerm;44276;49.534;6.378;2023-09-19T07:22:57;43.38;39.46;54.00;;
56099;Laerm;44276;49.534;6.378;2023-09-19T07:25:27;44.10;39.81;55.20;;
56099;Laerm;44276;49.534;6.378;2023-09-19T07:27:56;43.99;39.92;56.76;;
56099;Laerm;44276;49.534;6.378;2023-09-19T07:30:28;44.45;39.58;58.48;;
56099;Laerm;44276;49.534;6.378;2023-09-19T07:32:57;44.44;39.21;57.80;;
56099;Laerm;44276;49.534;6.378;2023-09-19T07:35:25;48.43;38.95;61.79;;
56099;Laerm;44276;49.534;6.378;2023-09-19T07:37:53;46.12;39.58;60.87;;
56099;Laerm;44276;49.534;6.378;2023-09-19T07:40:27;43.22;39.21;57.05;;
56099;Laerm;44276;49.534;6.378;2023-09-19T07:42:56;44.52;39.34;56.42;;
56099;Laerm;44276;49.534;6.378;2023-09-19T07:45:28;43.73;39.08;55.65;;
56099;Laerm;44276;49.534;6.378;2023-09-19T07:47:57;47.63;39.46;59.54;;
56099;Laerm;44276;49.534;6.378;2023-09-19T07:50:27;45.97;39.70;58.03;;
56099;Laerm;44276;49.534;6.378;2023-09-19T07:52:56;46.22;38.95;65.26;;
56099;Laerm;44276;49.534;6.378;2023-09-19T07:55:24;42.87;38.95;54.99;;
56099;Laerm;44276;49.534;6.378;2023-09-19T07:57:54;42.75;39.11;53.76;;
56099;Laerm;44276;49.534;6.378;2023-09-19T08:00:22;42.53;38.95;51.84;;
56099;Laerm;44276;49.534;6.378;2023-09-19T08:02:50;42.86;39.58;56.20;;
56099;Laerm;44276;49.534;6.378;2023-09-19T08:05:27;41.97;38.95;49.45;;
56099;Laerm;44276;49.534;6.378;2023-09-19T08:07:55;41.98;39.08;50.97;;
56099;Laerm;44276;49.534;6.378;2023-09-19T08:10:26;43.20;39.34;55.30;;
56099;Laerm;44276;49.534;6.378;2023-09-19T08:12:56;42.96;38.95;54.49;;
56099;Laerm;44276;49.534;6.378;2023-09-19T08:15:26;44.01;39.46;55.13;;
56099;Laerm;44276;49.534;6.378;2023-09-19T08:17:54;43.88;39.34;60.90;;
56099;Laerm;44276;49.534;6.378;2023-09-19T08:20:23;45.44;39.34;56.64;;
56099;Laerm;44276;49.534;6.378;2023-09-19T08:22:52;44.93;39.46;59.75;;
56099;Laerm;44276;49.534;6.378;2023-09-19T08:25:22;46.84;40.13;62.35;;
56099;Laerm;44276;49.534;6.378;2023-09-19T08:27:52;46.83;39.21;56.09;;
56099;Laerm;44276;49.534;6.378;2023-09-19T08:30:23;47.72;39.34;59.49;;
56099;Laerm;44276;49.534;6.378;2023-09-19T08:32:57;48.55;38.37;59.84;;
56099;Laerm;44276;49.534;6.378;2023-09-19T08:35:27;42.83;39.08;53.62;;
56099;Laerm;44276;49.534;6.378;2023-09-19T08:37:55;42.33;38.67;51.30;;
56099;Laerm;44276;49.534;6.378;2023-09-19T08:40:24;44.18;39.34;56.92;;
56099;Laerm;44276;49.534;6.378;2023-09-19T08:42:57;45.70;39.34;56.75;;
56099;Laerm;44276;49.534;6.378;2023-09-19T08:45:27;46.09;39.46;59.35;;
56099;Laerm;44276;49.534;6.378;2023-09-19T08:48:10;46.00;39.46;59.78;;
56099;Laerm;44276;49.534;6.378;2023-09-19T08:50:48;43.66;39.46;60.19;;
56099;Laerm;44276;49.534;6.378;2023-09-19T08:53:26;43.85;39.21;58.34;;
56099;Laerm;44276;49.534;6.378;2023-09-19T08:55:56;43.88;38.52;54.90;;
56099;Laerm;44276;49.534;6.378;2023-09-19T08:58:31;43.62;38.05;53.86;;
56099;Laerm;44276;49.534;6.378;2023-09-19T09:01:05;46.19;37.12;57.52;;
56099;Laerm;44276;49.534;6.378;2023-09-19T09:03:34;44.14;35.94;54.03;;
56099;Laerm;44276;49.534;6.378;2023-09-19T09:06:04;44.97;35.36;53.08;;
56099;Laerm;44276;49.534;6.378;2023-09-19T09:08:33;42.13;38.37;53.29;;
56099;Laerm;44276;49.534;6.378;2023-09-19T09:11:02;42.82;38.81;54.32;;
56099;Laerm;44276;49.534;6.378;2023-09-19T09:13:36;42.26;38.21;52.09;;
56099;Laerm;44276;49.534;6.378;2023-09-19T09:16:06;42.78;38.21;50.78;;
56099;Laerm;44276;49.534;6.378;2023-09-19T09:18:34;49.66;39.34;64.07;;
56099;Laerm;44276;49.534;6.378;2023-09-19T09:21:03;46.78;38.47;61.00;;
56099;Laerm;44276;49.534;6.378;2023-09-19T09:23:32;43.86;39.57;57.99;;
56099;Laerm;44276;49.534;6.378;2023-09-19T09:26:00;53.84;40.43;70.02;;
56099;Laerm;44276;49.534;6.378;2023-09-19T09:28:34;45.94;39.58;61.34;;
56099;Laerm;44276;49.534;6.378;2023-09-19T09:31:22;45.58;38.95;61.36;;
56099;Laerm;44276;49.534;6.378;2023-09-19T09:33:55;46.07;38.81;61.63;;
56099;Laerm;44276;49.534;6.378;2023-09-19T09:36:35;44.13;38.05;53.37;;
56099;Laerm;44276;49.534;6.378;2023-09-19T09:39:04;44.55;37.52;58.98;;
56099;Laerm;44276;49.534;6.378;2023-09-19T09:41:45;46.31;38.81;59.99;;
56099;Laerm;44276;49.534;6.378;2023-09-19T09:44:16;47.74;39.92;62.11;;
56099;Laerm;44276;49.534;6.378;2023-09-19T09:46:48;45.79;38.67;60.60;;
56099;Laerm;44276;49.534;6.378;2023-09-19T09:49:48;43.43;38.21;50.32;;
56099;Laerm;44276;49.534;6.378;2023-09-19T09:52:21;53.32;39.46;69.07;;
56099;Laerm;44276;49.534;6.378;2023-09-19T09:55:02;52.44;39.81;68.13;;
56099;Laerm;44276;49.534;6.378;2023-09-19T09:57:33;48.80;36.45;67.30;;
56099;Laerm;44276;49.534;6.378;2023-09-19T10:00:04;43.60;37.70;62.83;;
56099;Laerm;44276;49.534;6.378;2023-09-19T10:02:48;46.50;38.81;59.37;;
56099;Laerm;44276;49.534;6.378;2023-09-19T10:05:18;48.08;39.08;62.59;;
56099;Laerm;44276;49.534;6.378;2023-09-19T10:07:55;47.25;39.46;62.17;;
56099;Laerm;44276;49.534;6.378;2023-09-19T10:10:32;49.05;39.46;63.77;;
56099;Laerm;44276;49.534;6.378;2023-09-19T10:13:13;48.52;39.21;63.32;;
56099;Laerm;44276;49.534;6.378;2023-09-19T10:15:49;47.64;39.70;60.42;;
56099;Laerm;44276;49.534;6.378;2023-09-19T10:18:23;49.97;36.20;71.51;;
56099;Laerm;44276;49.534;6.378;2023-09-19T10:20:52;49.08;36.45;63.16;;
56099;Laerm;44276;49.534;6.378;2023-09-19T10:23:22;50.16;39.46;64.14;;
56099;Laerm;44276;49.534;6.378;2023-09-19T10:25:53;46.67;39.58;62.00;;
56099;Laerm;44276;49.534;6.378;2023-09-19T10:28:22;46.82;37.52;61.97;;
56099;Laerm;44276;49.534;6.378;2023-09-19T10:30:52;46.78;29.92;61.81;;
56099;Laerm;44276;49.534;6.378;2023-09-19T10:33:25;45.59;37.88;65.19;;
56099;Laerm;44276;49.534;6.378;2023-09-19T10:35:54;47.76;34.69;64.51;;
56099;Laerm;44276;49.534;6.378;2023-09-19T10:38:28;49.35;37.32;64.05;;
56099;Laerm;44276;49.534;6.378;2023-09-19T10:40:57;48.80;40.03;62.89;;
56099;Laerm;44276;49.534;6.378;2023-09-19T10:43:31;48.95;38.21;65.40;;
56099;Laerm;44276;49.534;6.378;2023-09-19T10:46:07;45.73;35.36;56.87;;
56099;Laerm;44276;49.534;6.378;2023-09-19T10:48:40;44.36;33.90;53.41;;
56099;Laerm;44276;49.534;6.378;2023-09-19T10:51:15;46.88;37.70;66.23;;
56099;Laerm;44276;49.534;6.378;2023-09-19T10:53:51;50.92;37.52;67.63;;
56099;Laerm;44276;49.534;6.378;2023-09-19T10:56:27;51.17;34.69;66.28;;
56099;Laerm;44276;49.534;6.378;2023-09-19T10:59:07;51.61;33.90;67.20;;
56099;Laerm;44276;49.534;6.378;2023-09-19T11:01:44;49.60;39.08;61.90;;
56099;Laerm;44276;49.534;6.378;2023-09-19T11:04:28;51.48;39.81;64.88;;
56099;Laerm;44276;49.534;6.378;2023-09-19T11:07:04;52.70;35.36;65.95;;
56099;Laerm;44276;49.534;6.378;2023-09-19T11:09:46;50.56;39.46;64.84;;
56099;Laerm;44276;49.534;6.378;2023-09-19T11:12:48;53.11;37.52;67.23;;
56099;Laerm;44276;49.534;6.378;2023-09-19T11:16:04;52.22;40.98;66.57;;
56099;Laerm;44276;49.534;6.378;2023-09-19T11:18:56;52.86;40.33;70.30;;
56099;Laerm;44276;49.534;6.378;2023-09-19T11:21:53;52.66;39.21;62.49;;
56099;Laerm;44276;49.534;6.378;2023-09-19T11:24:29;50.72;41.53;61.64;;
56099;Laerm;44276;49.534;6.378;2023-09-19T11:27:14;52.20;40.62;63.03;;
56099;Laerm;44276;49.534;6.378;2023-09-19T11:29:44;53.35;40.13;66.53;;
56099;Laerm;44276;49.534;6.378;2023-09-19T11:32:13;48.99;38.95;57.99;;
56099;Laerm;44276;49.534;6.378;2023-09-19T11:34:46;52.90;39.46;64.20;;
56099;Laerm;44276;49.534;6.378;2023-09-19T11:38:01;54.25;40.23;67.74;;
56099;Laerm;44276;49.534;6.378;2023-09-19T11:40:46;52.92;38.21;61.45;;
56099;Laerm;44276;49.534;6.378;2023-09-19T11:43:32;50.86;37.32;61.30;;
56099;Laerm;44276;49.534;6.378;2023-09-19T11:46:04;50.50;35.94;60.18;;
56099;Laerm;44276;49.534;6.378;2023-09-19T11:48:33;51.35;39.81;69.32;;
56099;Laerm;44276;49.534;6.378;2023-09-19T11:51:18;54.11;35.94;68.73;;
56099;Laerm;44276;49.534;6.378;2023-09-19T11:53:51;47.76;40.43;63.79;;
56099;Laerm;44276;49.534;6.378;2023-09-19T11:56:22;49.21;38.95;61.38;;
56099;Laerm;44276;49.534;6.378;2023-09-19T11:58:54;52.45;39.34;65.87;;
56099;Laerm;44276;49.534;6.378;2023-09-19T12:01:25;49.87;40.33;62.47;;
56099;Laerm;44276;49.534;6.378;2023-09-19T12:03:58;47.85;39.58;60.33;;
56099;Laerm;44276;49.534;6.378;2023-09-19T12:06:29;49.65;39.99;58.08;;
56099;Laerm;44276;49.534;6.378;2023-09-19T12:09:00;52.38;38.21;63.74;;
56099;Laerm;44276;49.534;6.378;2023-09-19T12:11:33;50.42;42.09;65.00;;
56099;Laerm;44276;49.534;6.378;2023-09-19T12:14:02;49.05;41.68;61.99;;
56099;Laerm;44276;49.534;6.378;2023-09-19T12:16:31;49.05;41.30;60.89;;
56099;Laerm;44276;49.534;6.378;2023-09-19T12:19:20;52.14;38.37;64.76;;
56099;Laerm;44276;49.534;6.378;2023-09-19T12:21:57;53.89;41.06;65.75;;
56099;Laerm;44276;49.534;6.378;2023-09-19T12:24:27;52.02;41.06;62.51;;
56099;Laerm;44276;49.534;6.378;2023-09-19T12:27:03;53.48;40.62;61.93;;
56099;Laerm;44276;49.534;6.378;2023-09-19T12:29:43;54.82;40.71;60.99;;
56099;Laerm;44276;49.534;6.378;2023-09-19T12:32:12;57.96;44.07;70.94;;
56099;Laerm;44276;49.534;6.378;2023-09-19T12:34:51;54.55;42.09;64.01;;
56099;Laerm;44276;49.534;6.378;2023-09-19T12:37:22;54.87;40.80;62.43;;
56099;Laerm;44276;49.534;6.378;2023-09-19T12:40:06;54.91;38.52;64.10;;
56099;Laerm;44276;49.534;6.378;2023-09-19T12:42:45;54.67;41.61;63.58;;
56099;Laerm;44276;49.534;6.378;2023-09-19T12:45:14;54.14;42.82;62.26;;
56099;Laerm;44276;49.534;6.378;2023-09-19T12:48:18;53.51;39.08;66.52;;
56099;Laerm;44276;49.534;6.378;2023-09-19T12:51:06;53.65;40.03;66.37;;
56099;Laerm;44276;49.534;6.378;2023-09-19T12:53:37;53.13;41.82;71.75;;
56099;Laerm;44276;49.534;6.378;2023-09-19T12:56:10;49.34;38.67;61.42;;
56099;Laerm;44276;49.534;6.378;2023-09-19T12:58:52;52.77;37.52;69.37;;
56099;Laerm;44276;49.534;6.378;2023-09-19T13:01:23;54.97;42.47;72.87;;
56099;Laerm;44276;49.534;6.378;2023-09-19T13:04:15;52.52;40.80;66.63;;
56099;Laerm;44276;49.534;6.378;2023-09-19T13:06:49;50.63;40.23;63.13;;
56099;Laerm;44276;49.534;6.378;2023-09-19T13:09:19;53.70;38.21;67.69;;
56099;Laerm;44276;49.534;6.378;2023-09-19T13:11:49;50.42;40.33;64.86;;
56099;Laerm;44276;49.534;6.378;2023-09-19T13:14:20;51.83;39.08;63.93;;
56099;Laerm;44276;49.534;6.378;2023-09-19T13:16:59;52.48;39.21;63.86;;
56099;Laerm;44276;49.534;6.378;2023-09-19T13:19:37;54.00;41.14;76.67;;
56099;Laerm;44276;49.534;6.378;2023-09-19T13:22:37;53.87;39.21;70.48;;
56099;Laerm;44276;49.534;6.378;2023-09-19T13:25:09;53.38;37.32;64.75;;
56099;Laerm;44276;49.534;6.378;2023-09-19T13:27:44;57.64;40.45;70.77;;
56099;Laerm;44276;49.534;6.378;2023-09-19T13:30:13;56.44;37.88;69.13;;
56099;Laerm;44276;49.534;6.378;2023-09-19T13:32:41;55.35;39.70;72.62;;
56099;Laerm;44276;49.534;6.378;2023-09-19T13:35:10;51.10;38.52;61.37;;
56099;Laerm;44276;49.534;6.378;2023-09-19T13:37:40;51.53;39.08;62.81;;
56099;Laerm;44276;49.534;6.378;2023-09-19T13:40:11;53.44;41.68;70.69;;
56099;Laerm;44276;49.534;6.378;2023-09-19T13:42:42;53.75;39.70;66.86;;
56099;Laerm;44276;49.534;6.378;2023-09-19T13:45:10;49.42;40.62;65.96;;
56099;Laerm;44276;49.534;6.378;2023-09-19T13:47:42;52.33;40.13;69.03;;
56099;Laerm;44276;49.534;6.378;2023-09-19T13:50:10;47.53;41.14;61.03;;
56099;Laerm;44276;49.534;6.378;2023-09-19T13:52:39;49.29;39.46;67.25;;
56099;Laerm;44276;49.534;6.378;2023-09-19T13:55:08;50.54;40.36;67.31;;
56099;Laerm;44276;49.534;6.378;2023-09-19T13:57:36;52.72;39.34;70.33;;
56099;Laerm;44276;49.534;6.378;2023-09-19T14:00:07;49.15;41.38;62.36;;
56099;Laerm;44276;49.534;6.378;2023-09-19T14:02:37;48.47;40.33;60.09;;
56099;Laerm;44276;49.534;6.378;2023-09-19T14:05:07;45.01;38.05;57.46;;
56099;Laerm;44276;49.534;6.378;2023-09-19T14:07:35;47.18;40.98;59.85;;
56099;Laerm;44276;49.534;6.378;2023-09-19T14:10:04;48.76;38.81;64.87;;
56099;Laerm;44276;49.534;6.378;2023-09-19T14:12:35;52.76;40.62;69.75;;
56099;Laerm;44276;49.534;6.378;2023-09-19T14:15:06;47.20;39.81;59.06;;